DLH1560 EDDF-UDYZ
Flight info
| Callsign | DLH1560 |
|---|---|
| Flight time | N/A |
| Altitude | 31000 |
| Route | SULUS7S SULUS Z650 VEMUT/N0433F350 DCT ETVIS DCT BUDEX DCT MAREG DCT ALAMU DCT BUDOP DCT IRLOX DCT LUGEB DCT UDROS/N0434F370 DCT CRM UM11 TBN UP146 YAVUZ UB374 INDUR |
| Aircraft | A320/M-SDE2E3FGIJ1LORWXY/HB1 |
Departure
| Time | N/A |
|---|---|
| Airport | Frankfurt Main Airport (EDDF) |
Arrival
| Time | 2026-04-28 15:31 |
|---|---|
| Airport | Zvartnots International Airport (UDYZ) |
| Time | Latitude | Longitude | Altitude | Speed | Heading |
|---|---|---|---|---|---|
| 2026-04-28 15:12 | 40.11889 | 42.23535 | 34684 ft | 433 kts | 121° |
| 2026-04-28 15:12 | 40.10564 | 42.27068 | 34122 ft | 432 kts | 121° |
| 2026-04-28 15:12 | 40.09238 | 42.30598 | 33556 ft | 431 kts | 121° |
| 2026-04-28 15:13 | 40.07933 | 42.34069 | 32978 ft | 430 kts | 121° |
| 2026-04-28 15:13 | 40.06621 | 42.37583 | 32400 ft | 431 kts | 118° |
| 2026-04-28 15:13 | 40.05578 | 42.41274 | 31810 ft | 434 kts | 109° |
| 2026-04-28 15:13 | 40.04980 | 42.45154 | 31210 ft | 437 kts | 100° |
| 2026-04-28 15:14 | 40.04841 | 42.49127 | 30610 ft | 440 kts | 91° |
| 2026-04-28 15:14 | 40.05065 | 42.53112 | 30009 ft | 440 kts | 88° |
| 2026-04-28 15:14 | 40.05314 | 42.57093 | 29413 ft | 439 kts | 88° |
| 2026-04-28 15:14 | 40.05554 | 42.61005 | 28829 ft | 437 kts | 89° |
| 2026-04-28 15:15 | 40.05793 | 42.64957 | 28244 ft | 436 kts | 88° |
| 2026-04-28 15:15 | 40.06029 | 42.68893 | 27659 ft | 434 kts | 88° |
| 2026-04-28 15:15 | 40.06265 | 42.72809 | 27076 ft | 431 kts | 88° |
| 2026-04-28 15:15 | 40.06500 | 42.76701 | 26502 ft | 428 kts | 88° |
| 2026-04-28 15:16 | 40.06734 | 42.80576 | 25930 ft | 425 kts | 88° |
| 2026-04-28 15:16 | 40.06962 | 42.84406 | 25381 ft | 422 kts | 88° |
| 2026-04-28 15:16 | 40.07187 | 42.88221 | 24832 ft | 419 kts | 88° |
| 2026-04-28 15:16 | 40.07407 | 42.91951 | 24337 ft | 414 kts | 88° |
| 2026-04-28 15:17 | 40.07626 | 42.95689 | 23846 ft | 409 kts | 88° |
| 2026-04-28 15:17 | 40.07841 | 42.99368 | 23376 ft | 405 kts | 88° |
| 2026-04-28 15:17 | 40.08053 | 43.03018 | 22905 ft | 401 kts | 88° |
| 2026-04-28 15:17 | 40.08260 | 43.06637 | 22435 ft | 397 kts | 88° |
| 2026-04-28 15:18 | 40.08468 | 43.10216 | 21984 ft | 393 kts | 88° |
| 2026-04-28 15:18 | 40.08673 | 43.13768 | 21510 ft | 390 kts | 87° |
| 2026-04-28 15:18 | 40.08873 | 43.17242 | 21057 ft | 386 kts | 88° |
| 2026-04-28 15:18 | 40.09073 | 43.20734 | 20593 ft | 383 kts | 87° |
| 2026-04-28 15:19 | 40.09269 | 43.24189 | 20116 ft | 380 kts | 87° |
| 2026-04-28 15:19 | 40.09462 | 43.27639 | 19629 ft | 378 kts | 87° |
| 2026-04-28 15:19 | 40.09651 | 43.31059 | 19147 ft | 375 kts | 87° |
| 2026-04-28 15:19 | 40.09834 | 43.34406 | 18656 ft | 374 kts | 86° |
| 2026-04-28 15:20 | 40.10020 | 43.37797 | 18165 ft | 373 kts | 86° |
| 2026-04-28 15:20 | 40.10205 | 43.41169 | 17681 ft | 370 kts | 86° |
| 2026-04-28 15:20 | 40.10387 | 43.44518 | 17197 ft | 369 kts | 86° |
| 2026-04-28 15:20 | 40.10567 | 43.47860 | 16708 ft | 367 kts | 86° |
| 2026-04-28 15:21 | 40.10746 | 43.51177 | 16228 ft | 365 kts | 86° |
| 2026-04-28 15:21 | 40.10923 | 43.54486 | 15755 ft | 363 kts | 86° |
| 2026-04-28 15:21 | 40.11099 | 43.57773 | 15274 ft | 362 kts | 86° |
| 2026-04-28 15:21 | 40.11270 | 43.61000 | 14808 ft | 359 kts | 86° |
| 2026-04-28 15:22 | 40.11465 | 43.64250 | 14330 ft | 358 kts | 83° |
| 2026-04-28 15:22 | 40.12034 | 43.67402 | 13840 ft | 356 kts | 71° |
| 2026-04-28 15:22 | 40.13073 | 43.70346 | 13235 ft | 355 kts | 63° |
| 2026-04-28 15:22 | 40.14196 | 43.73168 | 12645 ft | 343 kts | 63° |
| 2026-04-28 15:23 | 40.15183 | 43.76004 | 12081 ft | 342 kts | 73° |
| 2026-04-28 15:23 | 40.15681 | 43.79041 | 11406 ft | 343 kts | 85° |
| 2026-04-28 15:23 | 40.15643 | 43.82090 | 11024 ft | 323 kts | 95° |
| 2026-04-28 15:23 | 40.15496 | 43.84883 | 10810 ft | 303 kts | 94° |
| 2026-04-28 15:24 | 40.15375 | 43.87612 | 10183 ft | 299 kts | 93° |
| 2026-04-28 15:24 | 40.15269 | 43.90256 | 9915 ft | 283 kts | 92° |
| 2026-04-28 15:24 | 40.15166 | 43.92793 | 9486 ft | 277 kts | 92° |
| 2026-04-28 15:24 | 40.15060 | 43.95298 | 9094 ft | 274 kts | 92° |
| 2026-04-28 15:25 | 40.14951 | 43.97791 | 8703 ft | 275 kts | 92° |
| 2026-04-28 15:25 | 40.14841 | 44.00283 | 8322 ft | 274 kts | 92° |
| 2026-04-28 15:25 | 40.14731 | 44.02760 | 7958 ft | 272 kts | 92° |
| 2026-04-28 15:25 | 40.14637 | 44.05222 | 7588 ft | 270 kts | 91° |
| 2026-04-28 15:26 | 40.14536 | 44.07617 | 7203 ft | 261 kts | 91° |
| 2026-04-28 15:26 | 40.14515 | 44.09937 | 6866 ft | 249 kts | 89° |
| 2026-04-28 15:26 | 40.14536 | 44.12144 | 6542 ft | 238 kts | 88° |
| 2026-04-28 15:26 | 40.14557 | 44.14278 | 6228 ft | 230 kts | 88° |
| 2026-04-28 15:27 | 40.14573 | 44.16337 | 5926 ft | 223 kts | 88° |
| 2026-04-28 15:27 | 40.14588 | 44.18331 | 5635 ft | 216 kts | 88° |
| 2026-04-28 15:27 | 40.14602 | 44.20237 | 5373 ft | 208 kts | 88° |
| 2026-04-28 15:27 | 40.14615 | 44.22086 | 5126 ft | 195 kts | 88° |
| 2026-04-28 15:28 | 40.14626 | 44.23780 | 4856 ft | 181 kts | 87° |
| 2026-04-28 15:28 | 40.14638 | 44.25384 | 4606 ft | 172 kts | 87° |
| 2026-04-28 15:28 | 40.14648 | 44.26906 | 4395 ft | 161 kts | 87° |
| 2026-04-28 15:28 | 40.14657 | 44.28310 | 4189 ft | 150 kts | 86° |
| 2026-04-28 15:29 | 40.14665 | 44.29660 | 3987 ft | 147 kts | 86° |
| 2026-04-28 15:29 | 40.14675 | 44.30986 | 3791 ft | 145 kts | 86° |
| 2026-04-28 15:29 | 40.14683 | 44.32305 | 3579 ft | 145 kts | 86° |
| 2026-04-28 15:29 | 40.14691 | 44.33617 | 3404 ft | 144 kts | 86° |
| 2026-04-28 15:30 | 40.14701 | 44.34924 | 3195 ft | 144 kts | 87° |
| 2026-04-28 15:30 | 40.14716 | 44.36226 | 3032 ft | 143 kts | 86° |
| 2026-04-28 15:30 | 40.14724 | 44.37515 | 2872 ft | 143 kts | 88° |
| 2026-04-28 15:30 | 40.14731 | 44.38705 | 2830 ft | 110 kts | 90° |
| 2026-04-28 15:31 | 40.14739 | 44.39480 | 2831 ft | 61 kts | 91° |
| 2026-04-28 15:31 | 40.14739 | 44.39919 | 2836 ft | 27 kts | 89° |
| 2026-04-28 15:31 | 40.14777 | 44.40035 | 2836 ft | 14 kts | 11° |
| 2026-04-28 15:31 | 40.14878 | 44.40032 | 2837 ft | 15 kts | 359° |
| 2026-04-28 15:32 | 40.14968 | 44.40040 | 2837 ft | 11 kts | 25° |
| 2026-04-28 15:32 | 40.14993 | 44.40060 | 2837 ft | 4 kts | 31° |
| 2026-04-28 15:32 | 40.15019 | 44.40071 | 2837 ft | 2 kts | 6° |
| 2026-04-28 15:32 | 40.15027 | 44.40071 | 2837 ft | 2 kts | 359° |
| 2026-04-28 15:33 | 40.15064 | 44.40070 | 2837 ft | 7 kts | 360° |
| 2026-04-28 15:33 | 40.15092 | 44.40070 | 2837 ft | 2 kts | 0° |
| 2026-04-28 15:33 | 40.15097 | 44.40070 | 2837 ft | 0 kts | 0° |
| 2026-04-28 15:33 | 40.15098 | 44.40070 | 2836 ft | 0 kts | 0° |